createdAt,value
2022-10-09T00:01:51.355Z,13.57
2022-10-09T00:04:18.610Z,12.20
2022-10-09T00:06:46.001Z,12.75
2022-10-09T00:09:14.332Z,13.57
2022-10-09T00:11:41.568Z,13.13
2022-10-09T00:14:08.885Z,12.88
2022-10-09T00:16:36.295Z,13.02
2022-10-09T00:19:03.653Z,13.45
2022-10-09T00:21:34.719Z,12.45
2022-10-09T00:24:03.468Z,12.82
2022-10-09T00:26:30.777Z,14.02
2022-10-09T00:28:58.401Z,12.45
2022-10-09T00:31:25.801Z,12.88
2022-10-09T00:33:53.038Z,13.65
2022-10-09T00:36:21.465Z,14.02
2022-10-09T00:38:49.176Z,14.20
2022-10-09T00:41:18.448Z,13.93
2022-10-09T00:43:47.710Z,14.30
2022-10-09T00:46:34.763Z,13.18
2022-10-09T00:49:04.314Z,13.00
2022-10-09T00:51:32.488Z,12.60
2022-10-09T00:54:00.342Z,12.85
2022-10-09T00:56:28.302Z,13.32
2022-10-09T00:58:57.027Z,13.60
2022-10-09T01:01:24.403Z,12.45
2022-10-09T01:03:51.702Z,12.70
2022-10-09T01:06:31.280Z,12.48
2022-10-09T01:09:24.889Z,12.25
2022-10-09T01:12:11.099Z,11.13
2022-10-09T01:14:45.496Z,12.45
2022-10-09T01:17:20.876Z,12.48
2022-10-09T01:19:57.824Z,11.77
2022-10-09T01:22:44.024Z,12.38
2022-10-09T01:25:15.872Z,11.95
2022-10-09T01:27:43.172Z,10.35
2022-10-09T01:30:11.725Z,10.85
2022-10-09T01:32:40.563Z,10.05
2022-10-09T01:35:09.526Z,9.27
2022-10-09T01:37:37.837Z,9.55
2022-10-09T01:40:06.098Z,9.30
2022-10-09T01:42:33.486Z,8.38
2022-10-09T01:45:00.776Z,8.45
2022-10-09T01:47:28.175Z,8.13
2022-10-09T01:50:16.995Z,7.45
2022-10-09T01:53:03.128Z,7.35
2022-10-09T01:55:33.208Z,7.20
2022-10-09T01:58:11.668Z,6.85
2022-10-09T02:00:41.472Z,7.22
2022-10-09T02:03:10.452Z,7.13
2022-10-09T02:05:38.022Z,7.47
2022-10-09T02:08:05.265Z,6.75
2022-10-09T02:10:33.334Z,6.80
2022-10-09T02:13:01.183Z,6.35
2022-10-09T02:15:31.696Z,7.35
2022-10-09T02:18:03.193Z,6.80
2022-10-09T02:20:33.406Z,6.25
2022-10-09T02:23:03.030Z,6.30
2022-10-09T02:25:30.475Z,5.88
2022-10-09T02:27:57.854Z,5.85
2022-10-09T02:30:27.836Z,5.90
2022-10-09T02:35:22.606Z,6.10
2022-10-09T02:37:49.828Z,6.07
2022-10-09T02:40:17.153Z,6.10
2022-10-09T02:42:44.392Z,5.95
2022-10-09T02:45:11.741Z,6.18
2022-10-09T02:47:39.050Z,5.38
2022-10-09T02:50:06.619Z,5.90
2022-10-09T02:52:33.907Z,5.28
2022-10-09T02:55:01.152Z,6.40
2022-10-09T02:57:28.471Z,5.80
2022-10-09T02:59:55.737Z,5.50
2022-10-09T03:02:23.189Z,5.70
2022-10-09T03:04:50.552Z,5.88
2022-10-09T03:07:17.840Z,5.57
2022-10-09T03:09:45.152Z,5.65
2022-10-09T03:12:12.447Z,5.25
2022-10-09T03:14:39.693Z,5.28
2022-10-09T03:17:06.978Z,4.97
2022-10-09T03:19:34.270Z,5.20
2022-10-09T03:22:01.526Z,5.53
2022-10-09T03:24:28.768Z,4.93
2022-10-09T03:26:56.068Z,5.03
2022-10-09T03:29:23.532Z,5.50
2022-10-09T03:31:52.835Z,4.97
2022-10-09T03:34:20.687Z,4.65
2022-10-09T03:36:47.981Z,4.25
2022-10-09T03:39:15.297Z,4.35
2022-10-09T03:41:42.596Z,4.32
2022-10-09T03:44:09.860Z,4.40
2022-10-09T03:46:37.201Z,5.63
2022-10-09T03:49:04.541Z,4.80
2022-10-09T03:51:31.889Z,4.47
2022-10-09T03:53:59.158Z,4.75
2022-10-09T03:56:26.472Z,4.50
2022-10-09T03:58:53.762Z,4.20
2022-10-09T04:01:21.140Z,4.43
2022-10-09T04:03:48.447Z,4.50
2022-10-09T04:06:15.821Z,5.13
2022-10-09T04:08:43.165Z,4.78
2022-10-09T04:11:10.453Z,4.75
2022-10-09T04:13:37.768Z,4.32
2022-10-09T04:16:05.291Z,4.22
2022-10-09T04:18:32.612Z,4.20
2022-10-09T04:20:59.957Z,4.47
2022-10-09T04:23:28.153Z,4.20
2022-10-09T04:25:59.613Z,4.53
2022-10-09T04:28:28.233Z,4.40
2022-10-09T04:30:57.394Z,5.13
2022-10-09T04:33:25.344Z,4.50
2022-10-09T04:35:53.719Z,4.53
2022-10-09T04:38:21.789Z,4.88
2022-10-09T04:41:01.023Z,4.55
2022-10-09T04:43:28.393Z,4.32
2022-10-09T04:45:55.885Z,4.43
2022-10-09T04:48:23.524Z,4.50
2022-10-09T04:50:50.866Z,4.32
2022-10-09T04:53:18.335Z,4.18
2022-10-09T04:55:46.005Z,4.15
2022-10-09T04:58:14.009Z,4.50
2022-10-09T05:00:42.431Z,4.40
2022-10-09T05:03:10.185Z,3.63
2022-10-09T05:05:37.605Z,3.72
2022-10-09T05:08:05.078Z,3.42
2022-10-09T05:10:33.196Z,3.30
2022-10-09T05:13:00.869Z,3.50
2022-10-09T05:15:28.333Z,3.80
2022-10-09T05:17:55.691Z,3.10
2022-10-09T05:20:23.000Z,3.85
2022-10-09T05:22:50.552Z,3.38
2022-10-09T05:25:18.158Z,3.13
2022-10-09T05:27:45.416Z,3.70
2022-10-09T05:30:12.819Z,2.80
2022-10-09T05:32:40.090Z,3.30
2022-10-09T05:35:07.908Z,3.30
2022-10-09T05:37:35.202Z,3.45
2022-10-09T05:40:04.877Z,3.70
2022-10-09T05:42:32.168Z,3.13
2022-10-09T05:44:59.480Z,3.05
2022-10-09T05:47:28.850Z,3.15
2022-10-09T05:49:56.122Z,3.40
2022-10-09T05:52:25.177Z,2.97
2022-10-09T05:54:52.929Z,2.97
2022-10-09T05:57:20.700Z,2.40
2022-10-09T05:59:51.953Z,2.85
2022-10-09T06:02:19.285Z,3.47
2022-10-09T06:04:46.647Z,3.50
2022-10-09T06:07:14.298Z,2.70
2022-10-09T06:09:43.019Z,2.60
2022-10-09T06:12:10.619Z,2.80
2022-10-09T06:14:38.361Z,2.58
2022-10-09T06:17:05.733Z,2.92
2022-10-09T06:19:33.714Z,2.78
2022-10-09T06:22:01.025Z,2.80
2022-10-09T06:24:29.510Z,3.03
2022-10-09T06:26:59.414Z,3.05
2022-10-09T06:29:28.815Z,3.15
2022-10-09T06:31:56.098Z,3.03
2022-10-09T06:34:23.542Z,3.08
2022-10-09T06:36:51.182Z,3.00
2022-10-09T06:39:18.584Z,2.60
2022-10-09T06:41:46.102Z,2.35
2022-10-09T06:44:17.177Z,2.70
2022-10-09T06:46:45.271Z,2.00
2022-10-09T06:49:12.748Z,2.88
2022-10-09T06:51:41.006Z,2.85
2022-10-09T06:54:11.753Z,2.95
2022-10-09T06:56:39.842Z,2.42
2022-10-09T06:59:07.815Z,2.83
2022-10-09T07:01:35.865Z,2.25
2022-10-09T07:04:07.079Z,2.40
2022-10-09T07:06:35.761Z,2.92
2022-10-09T07:09:05.102Z,2.35
2022-10-09T07:11:52.692Z,2.33
2022-10-09T07:14:19.979Z,2.22
2022-10-09T07:16:48.655Z,2.17
2022-10-09T07:19:17.649Z,2.70
2022-10-09T07:21:46.332Z,2.37
2022-10-09T07:24:13.846Z,1.80
2022-10-09T07:26:42.620Z,1.83
2022-10-09T07:29:10.763Z,2.35
2022-10-09T07:31:39.698Z,2.40
2022-10-09T07:34:07.110Z,2.13
2022-10-09T07:36:34.796Z,1.77
2022-10-09T07:39:02.342Z,1.70
2022-10-09T07:41:31.024Z,1.60
2022-10-09T07:43:58.905Z,1.38
2022-10-09T07:46:33.032Z,1.60
2022-10-09T07:49:01.122Z,2.28
2022-10-09T07:51:29.343Z,1.73
2022-10-09T07:53:57.640Z,2.28
2022-10-09T07:56:29.134Z,2.15
2022-10-09T07:58:57.857Z,1.80
2022-10-09T08:01:25.628Z,1.90
2022-10-09T08:03:54.746Z,1.60
2022-10-09T08:06:22.230Z,1.60
2022-10-09T08:08:55.652Z,2.03
2022-10-09T08:11:23.748Z,1.30
2022-10-09T08:13:51.406Z,1.10
2022-10-09T08:16:19.231Z,1.77
2022-10-09T08:18:47.669Z,1.58
2022-10-09T08:21:16.925Z,1.25
2022-10-09T08:23:45.812Z,1.40
2022-10-09T08:26:14.150Z,1.40
2022-10-09T08:28:42.922Z,1.20
2022-10-09T08:31:10.908Z,1.40
2022-10-09T08:33:39.849Z,1.60
2022-10-09T08:36:07.993Z,1.50
2022-10-09T08:38:47.037Z,1.30
2022-10-09T08:41:38.073Z,1.88
2022-10-09T08:44:24.144Z,2.72
2022-10-09T08:47:10.394Z,1.40
2022-10-09T08:49:56.402Z,2.55
2022-10-09T08:52:23.695Z,2.08
2022-10-09T08:54:51.767Z,1.73
2022-10-09T08:57:19.049Z,1.67
2022-10-09T08:59:46.456Z,1.92
2022-10-09T09:02:16.848Z,1.17
2022-10-09T09:05:03.607Z,1.40
2022-10-09T09:07:37.787Z,1.40
2022-10-09T09:10:11.022Z,1.05
2022-10-09T09:12:46.259Z,1.55
2022-10-09T09:15:30.465Z,1.58
2022-10-09T09:17:57.716Z,1.20
2022-10-09T09:20:31.078Z,1.17
2022-10-09T09:23:00.002Z,1.27
2022-10-09T09:25:29.438Z,1.10
2022-10-09T09:27:59.872Z,1.40
2022-10-09T09:30:34.714Z,1.23
2022-10-09T09:33:23.867Z,1.40
2022-10-09T09:35:59.831Z,1.85
2022-10-09T09:38:27.972Z,1.55
2022-10-09T09:40:57.761Z,0.90
2022-10-09T09:43:26.516Z,7.25
2022-10-09T09:45:59.264Z,1.00
2022-10-09T09:48:28.483Z,1.40
2022-10-09T09:51:16.119Z,1.70
2022-10-09T09:53:45.870Z,2.55
2022-10-09T09:56:13.103Z,1.40
2022-10-09T09:58:45.152Z,1.20
2022-10-09T10:01:20.847Z,1.23
2022-10-09T10:03:50.573Z,1.42
2022-10-09T10:06:38.063Z,1.10
2022-10-09T10:09:06.711Z,1.30
2022-10-09T10:11:35.844Z,1.00
2022-10-09T10:14:07.988Z,1.67
2022-10-09T10:16:36.967Z,1.35
2022-10-09T10:19:06.487Z,1.25
2022-10-09T10:21:49.181Z,1.30
2022-10-09T10:24:21.169Z,0.90
2022-10-09T10:27:01.790Z,1.20
2022-10-09T10:29:45.300Z,0.90
2022-10-09T10:32:12.595Z,0.80
2022-10-09T10:34:44.786Z,1.10
2022-10-09T10:37:14.945Z,1.10
2022-10-09T10:39:42.948Z,1.08
2022-10-09T10:42:19.634Z,1.45
2022-10-09T10:45:11.525Z,1.55
2022-10-09T10:47:42.362Z,1.85
2022-10-09T10:50:17.154Z,33.88
2022-10-09T10:52:57.613Z,3.30
2022-10-09T10:55:27.770Z,1.42
2022-10-09T10:58:15.860Z,1.05
2022-10-09T11:00:48.292Z,1.33
2022-10-09T11:03:19.656Z,1.08
2022-10-09T11:05:48.536Z,1.13
2022-10-09T11:08:27.823Z,1.60
2022-10-09T11:10:56.036Z,0.88
2022-10-09T11:13:33.803Z,0.90
2022-10-09T11:16:16.203Z,1.05
2022-10-09T11:18:46.607Z,1.20
2022-10-09T11:21:13.891Z,1.13
2022-10-09T11:24:06.742Z,0.90
2022-10-09T11:26:34.448Z,1.38
2022-10-09T11:29:05.062Z,1.00
2022-10-09T11:31:37.559Z,1.10
2022-10-09T11:34:26.041Z,0.80
2022-10-09T11:36:54.105Z,0.90
2022-10-09T11:39:23.809Z,1.00
2022-10-09T11:41:52.392Z,0.70
2022-10-09T11:44:25.521Z,0.68
2022-10-09T11:46:55.591Z,0.90
2022-10-09T11:49:46.523Z,0.70
2022-10-09T11:52:22.776Z,1.00
2022-10-09T11:54:50.213Z,1.15
2022-10-09T11:57:27.361Z,0.90
2022-10-09T12:00:04.313Z,0.70
2022-10-09T12:02:32.347Z,0.85
2022-10-09T12:04:59.859Z,0.75
2022-10-09T12:07:31.665Z,0.75
2022-10-09T12:10:01.545Z,0.70
2022-10-09T12:14:56.446Z,0.75
2022-10-09T12:17:23.750Z,1.35
2022-10-09T12:19:56.232Z,0.85
2022-10-09T12:22:31.929Z,1.05
2022-10-09T12:25:03.346Z,0.73
2022-10-09T12:27:38.925Z,3.05
2022-10-09T12:30:09.161Z,0.55
2022-10-09T12:32:38.335Z,0.88
2022-10-09T12:35:13.395Z,0.80
2022-10-09T12:37:40.683Z,0.60
2022-10-09T12:40:15.321Z,0.88
2022-10-09T12:42:43.608Z,0.80
2022-10-09T12:45:37.189Z,0.70
2022-10-09T12:48:10.331Z,0.50
2022-10-09T12:50:37.660Z,0.98
2022-10-09T12:53:04.882Z,0.55
2022-10-09T12:55:33.451Z,0.70
2022-10-09T12:58:03.532Z,0.93
2022-10-09T13:00:34.780Z,0.82
2022-10-09T13:03:02.553Z,0.80
2022-10-09T13:05:39.583Z,1.00
2022-10-09T13:08:07.634Z,1.02
2022-10-09T13:10:34.973Z,0.80
2022-10-09T13:13:02.305Z,0.80
2022-10-09T13:15:29.576Z,0.93
2022-10-09T13:17:56.920Z,1.00
2022-10-09T13:20:26.098Z,1.10
2022-10-09T13:22:56.446Z,0.68
2022-10-09T13:25:25.136Z,0.85
2022-10-09T13:27:52.597Z,1.05
2022-10-09T13:30:20.109Z,1.25
2022-10-09T13:32:47.411Z,0.95
2022-10-09T13:35:14.670Z,1.00
2022-10-09T13:37:42.226Z,1.30
2022-10-09T13:40:15.612Z,1.17
2022-10-09T13:42:43.419Z,0.80
2022-10-09T13:45:11.111Z,1.15
2022-10-09T13:47:38.623Z,0.90
2022-10-09T13:50:06.085Z,1.10
2022-10-09T13:52:33.394Z,1.30
2022-10-09T13:55:00.699Z,1.10
2022-10-09T13:57:28.001Z,0.77
2022-10-09T13:59:55.326Z,1.70
2022-10-09T14:02:22.611Z,1.20
2022-10-09T14:04:49.865Z,1.35
2022-10-09T14:07:17.172Z,1.10
2022-10-09T14:09:44.470Z,1.05
2022-10-09T14:12:11.770Z,1.20
2022-10-09T14:14:39.027Z,0.80
2022-10-09T14:17:06.315Z,1.05
2022-10-09T14:19:33.562Z,0.80
2022-10-09T14:22:00.905Z,1.40
2022-10-09T14:24:28.287Z,0.90
2022-10-09T14:26:55.616Z,0.82
2022-10-09T14:29:22.943Z,0.80
2022-10-09T14:31:51.569Z,0.85
2022-10-09T14:34:18.954Z,1.30
2022-10-09T14:36:46.343Z,1.55
2022-10-09T14:39:13.630Z,0.95
2022-10-09T14:41:41.032Z,1.00
2022-10-09T14:44:09.336Z,1.08
2022-10-09T14:46:38.675Z,1.00
2022-10-09T14:49:10.258Z,1.10
2022-10-09T14:51:38.298Z,1.20
2022-10-09T14:54:06.237Z,1.20
2022-10-09T14:56:33.707Z,1.48
2022-10-09T14:59:03.557Z,1.48
2022-10-09T15:01:30.923Z,1.95
2022-10-09T15:04:00.367Z,1.40
2022-10-09T15:06:28.190Z,1.30
2022-10-09T15:08:57.163Z,1.40
2022-10-09T15:11:26.919Z,1.10
2022-10-09T15:13:54.180Z,1.63
2022-10-09T15:16:21.591Z,1.85
2022-10-09T15:18:52.999Z,1.60
2022-10-09T15:21:21.658Z,1.27
2022-10-09T15:23:50.120Z,1.42
2022-10-09T15:26:17.591Z,1.48
2022-10-09T15:28:45.887Z,1.70
2022-10-09T15:31:27.115Z,1.50
2022-10-09T15:33:56.273Z,1.20
2022-10-09T15:38:54.145Z,3.88
2022-10-09T15:41:24.974Z,1.90
2022-10-09T15:43:52.821Z,1.58
2022-10-09T15:46:20.275Z,1.83
2022-10-09T15:48:48.180Z,1.60
2022-10-09T15:51:15.714Z,1.83
2022-10-09T15:53:51.061Z,2.15
2022-10-09T15:56:21.779Z,2.20
2022-10-09T15:58:49.406Z,2.10
2022-10-09T16:01:17.421Z,1.70
2022-10-09T16:03:44.851Z,1.63
2022-10-09T16:06:13.451Z,1.70
2022-10-09T16:08:40.873Z,1.90
2022-10-09T16:13:42.493Z,1.70
2022-10-09T16:16:12.526Z,1.80
2022-10-09T16:18:39.867Z,1.90
2022-10-09T16:21:11.436Z,2.10
2022-10-09T16:23:38.743Z,3.58
2022-10-09T16:26:06.096Z,3.00
2022-10-09T16:28:33.846Z,2.40
2022-10-09T16:31:01.436Z,3.25
2022-10-09T16:33:28.729Z,2.72
2022-10-09T16:35:55.987Z,3.28
2022-10-09T16:38:23.259Z,3.13
2022-10-09T16:41:02.035Z,2.55
2022-10-09T16:43:30.285Z,2.30
2022-10-09T16:46:08.530Z,2.78
2022-10-09T16:48:36.802Z,3.00
2022-10-09T16:51:08.886Z,2.65
2022-10-09T16:53:36.160Z,3.78
2022-10-09T16:56:16.795Z,3.60
2022-10-09T16:58:44.625Z,3.80
2022-10-09T17:01:12.508Z,4.78
2022-10-09T17:03:41.271Z,4.53
2022-10-09T17:06:12.787Z,14.80
2022-10-09T17:08:40.534Z,14.43
2022-10-09T17:11:11.780Z,6.20
2022-10-09T17:13:39.495Z,5.63
2022-10-09T17:16:07.661Z,6.32
2022-10-09T17:18:35.741Z,6.15
2022-10-09T17:21:06.798Z,8.05
2022-10-09T17:23:34.114Z,8.25
2022-10-09T17:26:05.795Z,8.65
2022-10-09T17:28:34.492Z,8.32
2022-10-09T17:31:05.769Z,8.80
2022-10-09T17:33:33.422Z,8.70
2022-10-09T17:36:03.195Z,9.48
2022-10-09T17:38:30.970Z,9.00
2022-10-09T17:40:58.351Z,8.77
2022-10-09T17:43:25.604Z,8.25
2022-10-09T17:45:52.921Z,8.45
2022-10-09T17:48:20.233Z,9.13
2022-10-09T17:50:51.590Z,9.40
2022-10-09T17:53:18.831Z,9.85
2022-10-09T17:55:46.151Z,9.13
2022-10-09T17:58:13.517Z,8.98
2022-10-09T18:00:41.004Z,13.63
2022-10-09T18:03:08.354Z,15.20
2022-10-09T18:05:41.406Z,16.75
2022-10-09T18:08:08.789Z,18.77
2022-10-09T18:10:37.268Z,21.30
2022-10-09T18:13:05.256Z,18.48
2022-10-09T18:15:32.515Z,19.13
2022-10-09T18:17:59.764Z,20.75
2022-10-09T18:20:27.138Z,23.27
2022-10-09T18:22:54.411Z,22.83
2022-10-09T18:25:21.690Z,26.02
2022-10-09T18:27:49.170Z,23.85
2022-10-09T18:30:17.107Z,22.95
2022-10-09T18:32:44.401Z,27.08
2022-10-09T18:35:12.884Z,23.85
2022-10-09T18:37:40.149Z,28.45
2022-10-09T18:40:08.270Z,27.33
2022-10-09T18:42:35.872Z,24.95
2022-10-09T18:45:04.408Z,25.17
2022-10-09T18:47:34.192Z,24.88
2022-10-09T18:50:02.959Z,22.85
2022-10-09T18:52:30.793Z,22.60
2022-10-09T18:54:58.626Z,24.13
2022-10-09T18:57:26.422Z,23.15
2022-10-09T18:59:54.963Z,22.23
2022-10-09T19:02:26.433Z,18.73
2022-10-09T19:04:57.966Z,17.65
2022-10-09T19:07:27.109Z,18.45
2022-10-09T19:09:57.299Z,19.90
2022-10-09T19:12:25.417Z,25.77
2022-10-09T19:14:53.844Z,24.65
2022-10-09T19:17:21.228Z,25.45
2022-10-09T19:19:49.857Z,24.05
2022-10-09T19:22:22.877Z,24.00
2022-10-09T19:24:50.976Z,25.63
2022-10-09T19:27:21.626Z,22.55
2022-10-09T19:29:51.815Z,23.48
2022-10-09T19:32:22.915Z,23.33
2022-10-09T19:34:51.017Z,25.75
2022-10-09T19:37:18.680Z,24.58
2022-10-09T19:39:48.601Z,23.13
2022-10-09T19:42:19.451Z,25.40
2022-10-09T19:44:47.896Z,20.65
2022-10-09T19:47:16.016Z,20.70
2022-10-09T19:49:43.352Z,21.30
2022-10-09T19:52:10.622Z,18.85
2022-10-09T19:54:38.748Z,19.80
2022-10-09T19:57:06.036Z,19.58
2022-10-09T19:59:33.394Z,19.52
2022-10-09T20:02:00.825Z,17.92
2022-10-09T20:04:28.260Z,19.70
2022-10-09T20:06:55.602Z,19.38
2022-10-09T20:09:22.958Z,20.17
2022-10-09T20:11:50.231Z,19.38
2022-10-09T20:14:17.608Z,20.02
2022-10-09T20:16:45.026Z,19.00
2022-10-09T20:19:12.852Z,20.17
2022-10-09T20:21:40.245Z,19.75
2022-10-09T20:24:07.613Z,22.63
2022-10-09T20:26:35.555Z,23.50
2022-10-09T20:29:07.869Z,22.27
2022-10-09T20:31:35.214Z,21.95
2022-10-09T20:34:02.531Z,20.60
2022-10-09T20:36:35.378Z,22.58
2022-10-09T20:39:05.225Z,21.65
2022-10-09T20:41:34.681Z,21.35
2022-10-09T20:44:03.301Z,20.23
2022-10-09T20:46:32.007Z,21.95
2022-10-09T20:48:59.592Z,21.40
2022-10-09T20:51:26.957Z,16.35
2022-10-09T20:53:58.282Z,15.65
2022-10-09T20:56:26.601Z,22.15
2022-10-09T20:58:54.687Z,22.60
2022-10-09T21:01:22.394Z,20.65
2022-10-09T21:03:49.735Z,21.83
2022-10-09T21:06:18.390Z,21.27
2022-10-09T21:08:45.787Z,18.35
2022-10-09T21:11:16.392Z,17.40
2022-10-09T21:13:44.427Z,17.60
2022-10-09T21:16:12.809Z,21.13
2022-10-09T21:18:40.688Z,20.67
2022-10-09T21:21:15.402Z,19.17
2022-10-09T21:23:42.975Z,19.70
2022-10-09T21:26:13.938Z,18.90
2022-10-09T21:28:41.294Z,18.38
2022-10-09T21:31:09.719Z,20.08
2022-10-09T21:33:37.012Z,19.33
2022-10-09T21:36:09.732Z,21.23
2022-10-09T21:38:37.076Z,23.30
2022-10-09T21:41:04.583Z,21.05
2022-10-09T21:43:31.903Z,22.48
2022-10-09T21:46:02.068Z,21.45
2022-10-09T21:48:29.398Z,21.30
2022-10-09T21:50:57.650Z,18.45
2022-10-09T21:53:24.942Z,19.10
2022-10-09T21:55:52.238Z,19.30
2022-10-09T21:58:19.682Z,15.93
2022-10-09T22:00:47.010Z,15.80
2022-10-09T22:03:14.279Z,16.63
2022-10-09T22:05:41.593Z,21.23
2022-10-09T22:08:08.881Z,21.85
2022-10-09T22:10:36.174Z,24.23
2022-10-09T22:13:10.540Z,22.85
2022-10-09T22:15:47.702Z,23.25
2022-10-09T22:18:18.134Z,21.23
2022-10-09T22:20:46.400Z,22.20
2022-10-09T22:23:15.345Z,21.90
2022-10-09T22:25:42.670Z,24.27
2022-10-09T22:28:10.047Z,19.73
2022-10-09T22:30:37.568Z,19.20
2022-10-09T22:33:04.941Z,18.83
2022-10-09T22:35:32.241Z,19.90
2022-10-09T22:37:59.509Z,15.38
2022-10-09T22:40:26.963Z,12.93
2022-10-09T22:42:54.259Z,12.48
2022-10-09T22:45:21.562Z,13.80
2022-10-09T22:47:48.844Z,14.65
2022-10-09T22:50:16.142Z,16.90
2022-10-09T22:52:43.389Z,12.13
2022-10-09T22:55:10.893Z,12.25
2022-10-09T22:57:38.239Z,15.95
2022-10-09T23:00:06.194Z,15.10
2022-10-09T23:02:33.501Z,12.05
2022-10-09T23:05:00.820Z,13.32
2022-10-09T23:07:28.096Z,13.45
2022-10-09T23:09:55.403Z,12.35
2022-10-09T23:12:22.667Z,14.02
2022-10-09T23:14:49.951Z,15.73
2022-10-09T23:17:17.319Z,14.60
2022-10-09T23:19:45.948Z,13.02
2022-10-09T23:22:13.262Z,12.57
2022-10-09T23:24:40.578Z,10.77
2022-10-09T23:27:07.887Z,12.13
2022-10-09T23:29:35.163Z,13.23
2022-10-09T23:32:02.484Z,12.23
2022-10-09T23:34:29.772Z,11.10
2022-10-09T23:36:57.051Z,10.32
2022-10-09T23:39:24.386Z,10.45
2022-10-09T23:41:51.664Z,9.30
2022-10-09T23:44:22.022Z,9.63
2022-10-09T23:46:49.663Z,9.63
2022-10-09T23:49:17.004Z,10.07
2022-10-09T23:51:44.323Z,12.60
2022-10-09T23:54:11.683Z,11.88
2022-10-09T23:56:39.023Z,11.00
2022-10-09T23:59:06.919Z,9.75
